sensor_id;sensor_type;location;lat;lon;timestamp;temperature;humidity
23839;DHT22;12100;44.384;20.272;2022-09-09T00:02:18;21.40;94.10
23839;DHT22;12100;44.384;20.272;2022-09-09T00:04:58;21.30;95.10
23839;DHT22;12100;44.384;20.272;2022-09-09T00:10:31;21.10;98.90
23839;DHT22;12100;44.384;20.272;2022-09-09T00:13:05;21.10;99.90
23839;DHT22;12100;44.384;20.272;2022-09-09T00:18:21;20.90;99.90
23839;DHT22;12100;44.384;20.272;2022-09-09T00:21:01;20.90;99.90
23839;DHT22;12100;44.384;20.272;2022-09-09T00:23:42;20.80;99.90
23839;DHT22;12100;44.384;20.272;2022-09-09T00:31:34;20.60;99.90
23839;DHT22;12100;44.384;20.272;2022-09-09T00:34:08;20.50;99.90
23839;DHT22;12100;44.384;20.272;2022-09-09T00:36:37;20.40;99.90
23839;DHT22;12100;44.384;20.272;2022-09-09T00:39:04;20.30;99.90
23839;DHT22;12100;44.384;20.272;2022-09-09T00:41:55;20.20;99.90
23839;DHT22;12100;44.384;20.272;2022-09-09T00:44:31;20.20;99.90
23839;DHT22;12100;44.384;20.272;2022-09-09T00:50:06;20.10;99.90
23839;DHT22;12100;44.384;20.272;2022-09-09T00:58:10;19.80;99.90
23839;DHT22;12100;44.384;20.272;2022-09-09T01:01:01;19.70;99.90
23839;DHT22;12100;44.384;20.272;2022-09-09T01:03:44;19.70;99.90
23839;DHT22;12100;44.384;20.272;2022-09-09T01:06:33;19.60;99.90
23839;DHT22;12100;44.384;20.272;2022-09-09T01:09:13;19.50;99.90
23839;DHT22;12100;44.384;20.272;2022-09-09T01:17:08;19.40;99.90
23839;DHT22;12100;44.384;20.272;2022-09-09T01:25:20;19.30;99.90
23839;DHT22;12100;44.384;20.272;2022-09-09T01:27:48;19.30;99.90
23839;DHT22;12100;44.384;20.272;2022-09-09T01:30:17;19.10;99.90
23839;DHT22;12100;44.384;20.272;2022-09-09T01:32:52;19.10;99.90
23839;DHT22;12100;44.384;20.272;2022-09-09T01:37:57;19.10;99.90
23839;DHT22;12100;44.384;20.272;2022-09-09T01:47:43;19.00;99.90
23839;DHT22;12100;44.384;20.272;2022-09-09T01:50:12;18.90;99.90
23839;DHT22;12100;44.384;20.272;2022-09-09T01:52:40;18.90;99.90
23839;DHT22;12100;44.384;20.272;2022-09-09T01:55:07;19.00;99.90
23839;DHT22;12100;44.384;20.272;2022-09-09T02:00:24;18.90;99.90
23839;DHT22;12100;44.384;20.272;2022-09-09T02:05:45;18.90;99.90
23839;DHT22;12100;44.384;20.272;2022-09-09T02:08:24;18.80;99.90
23839;DHT22;12100;44.384;20.272;2022-09-09T02:11:20;18.90;99.90
23839;DHT22;12100;44.384;20.272;2022-09-09T02:13:48;18.90;99.90
23839;DHT22;12100;44.384;20.272;2022-09-09T02:17:05;18.80;99.90
23839;DHT22;12100;44.384;20.272;2022-09-09T02:21:44;18.70;99.90
23839;DHT22;12100;44.384;20.272;2022-09-09T02:24:13;18.80;99.90
23839;DHT22;12100;44.384;20.272;2022-09-09T02:26:43;18.90;99.90
23839;DHT22;12100;44.384;20.272;2022-09-09T02:29:21;18.90;99.90
23839;DHT22;12100;44.384;20.272;2022-09-09T02:31:49;18.90;99.90
23839;DHT22;12100;44.384;20.272;2022-09-09T02:34:18;18.90;99.90
23839;DHT22;12100;44.384;20.272;2022-09-09T02:36:46;18.90;99.90
23839;DHT22;12100;44.384;20.272;2022-09-09T02:39:12;19.00;99.90
23839;DHT22;12100;44.384;20.272;2022-09-09T02:41:40;18.90;99.90
23839;DHT22;12100;44.384;20.272;2022-09-09T02:44:17;18.90;99.90
23839;DHT22;12100;44.384;20.272;2022-09-09T02:52:42;18.70;99.90
23839;DHT22;12100;44.384;20.272;2022-09-09T02:57:47;18.90;99.90
23839;DHT22;12100;44.384;20.272;2022-09-09T03:00:14;19.00;99.90
23839;DHT22;12100;44.384;20.272;2022-09-09T03:02:40;19.00;99.90
23839;DHT22;12100;44.384;20.272;2022-09-09T03:05:07;19.00;99.90
23839;DHT22;12100;44.384;20.272;2022-09-09T03:07:33;19.10;99.90
23839;DHT22;12100;44.384;20.272;2022-09-09T03:09:59;19.10;99.90
23839;DHT22;12100;44.384;20.272;2022-09-09T03:12:25;19.20;99.90
23839;DHT22;12100;44.384;20.272;2022-09-09T03:14:50;19.20;99.90
23839;DHT22;12100;44.384;20.272;2022-09-09T03:17:16;19.20;99.90
23839;DHT22;12100;44.384;20.272;2022-09-09T03:19:42;19.10;99.90
23839;DHT22;12100;44.384;20.272;2022-09-09T03:22:10;19.20;99.90
23839;DHT22;12100;44.384;20.272;2022-09-09T03:24:36;19.20;99.90
23839;DHT22;12100;44.384;20.272;2022-09-09T03:27:02;19.20;99.90
23839;DHT22;12100;44.384;20.272;2022-09-09T03:29:28;19.10;99.90
23839;DHT22;12100;44.384;20.272;2022-09-09T03:31:54;19.20;99.90
23839;DHT22;12100;44.384;20.272;2022-09-09T03:34:20;19.30;99.90
23839;DHT22;12100;44.384;20.272;2022-09-09T03:36:45;19.30;99.90
23839;DHT22;12100;44.384;20.272;2022-09-09T03:39:13;19.40;99.90
23839;DHT22;12100;44.384;20.272;2022-09-09T03:41:39;19.40;99.90
23839;DHT22;12100;44.384;20.272;2022-09-09T03:44:05;19.50;99.90
23839;DHT22;12100;44.384;20.272;2022-09-09T03:46:31;19.50;99.90
23839;DHT22;12100;44.384;20.272;2022-09-09T03:48:57;19.50;99.90
23839;DHT22;12100;44.384;20.272;2022-09-09T03:51:23;19.40;99.90
23839;DHT22;12100;44.384;20.272;2022-09-09T03:53:49;19.40;99.90
23839;DHT22;12100;44.384;20.272;2022-09-09T03:56:15;19.40;99.90
23839;DHT22;12100;44.384;20.272;2022-09-09T03:58:41;19.40;99.90
23839;DHT22;12100;44.384;20.272;2022-09-09T04:01:12;19.40;99.90
23839;DHT22;12100;44.384;20.272;2022-09-09T04:03:39;19.40;99.90
23839;DHT22;12100;44.384;20.272;2022-09-09T04:06:06;19.40;99.90
23839;DHT22;12100;44.384;20.272;2022-09-09T04:08:33;19.40;99.90
23839;DHT22;12100;44.384;20.272;2022-09-09T04:11:00;19.40;99.90
23839;DHT22;12100;44.384;20.272;2022-09-09T04:13:27;19.20;99.90
23839;DHT22;12100;44.384;20.272;2022-09-09T04:15:58;19.20;99.90
23839;DHT22;12100;44.384;20.272;2022-09-09T04:18:25;19.10;99.90
23839;DHT22;12100;44.384;20.272;2022-09-09T04:20:52;19.20;99.90
23839;DHT22;12100;44.384;20.272;2022-09-09T04:23:19;19.20;99.90
23839;DHT22;12100;44.384;20.272;2022-09-09T04:25:47;19.30;99.90
23839;DHT22;12100;44.384;20.272;2022-09-09T04:28:17;19.40;99.90
23839;DHT22;12100;44.384;20.272;2022-09-09T04:30:44;19.50;99.90
23839;DHT22;12100;44.384;20.272;2022-09-09T04:33:10;19.50;99.90
23839;DHT22;12100;44.384;20.272;2022-09-09T04:35:36;19.60;99.90
23839;DHT22;12100;44.384;20.272;2022-09-09T04:38:03;19.70;99.90
23839;DHT22;12100;44.384;20.272;2022-09-09T04:40:30;19.90;99.90
23839;DHT22;12100;44.384;20.272;2022-09-09T04:42:59;19.90;99.90
23839;DHT22;12100;44.384;20.272;2022-09-09T04:45:26;19.90;99.90
23839;DHT22;12100;44.384;20.272;2022-09-09T04:47:52;19.90;99.90
23839;DHT22;12100;44.384;20.272;2022-09-09T04:50:18;19.90;99.90
23839;DHT22;12100;44.384;20.272;2022-09-09T04:52:44;19.80;99.90
23839;DHT22;12100;44.384;20.272;2022-09-09T04:55:10;19.90;99.90
23839;DHT22;12100;44.384;20.272;2022-09-09T04:57:38;19.90;99.90
23839;DHT22;12100;44.384;20.272;2022-09-09T05:00:05;19.90;99.90
23839;DHT22;12100;44.384;20.272;2022-09-09T05:02:31;19.90;99.90
23839;DHT22;12100;44.384;20.272;2022-09-09T05:04:58;19.90;99.90
23839;DHT22;12100;44.384;20.272;2022-09-09T05:07:24;20.00;99.90
23839;DHT22;12100;44.384;20.272;2022-09-09T05:09:52;20.10;99.90
23839;DHT22;12100;44.384;20.272;2022-09-09T05:12:17;20.00;99.90
23839;DHT22;12100;44.384;20.272;2022-09-09T05:14:44;20.10;99.90
23839;DHT22;12100;44.384;20.272;2022-09-09T05:17:10;20.10;99.90
23839;DHT22;12100;44.384;20.272;2022-09-09T05:19:36;20.10;99.90
23839;DHT22;12100;44.384;20.272;2022-09-09T05:22:02;20.20;99.90
23839;DHT22;12100;44.384;20.272;2022-09-09T05:24:28;20.20;99.90
23839;DHT22;12100;44.384;20.272;2022-09-09T05:26:54;20.30;99.90
23839;DHT22;12100;44.384;20.272;2022-09-09T05:29:23;20.30;99.90
23839;DHT22;12100;44.384;20.272;2022-09-09T05:31:49;20.30;99.90
23839;DHT22;12100;44.384;20.272;2022-09-09T05:34:15;20.40;99.90
23839;DHT22;12100;44.384;20.272;2022-09-09T05:36:40;20.50;99.90
23839;DHT22;12100;44.384;20.272;2022-09-09T05:39:06;20.60;99.90
23839;DHT22;12100;44.384;20.272;2022-09-09T05:41:32;20.70;99.90
23839;DHT22;12100;44.384;20.272;2022-09-09T05:43:58;20.70;99.90
23839;DHT22;12100;44.384;20.272;2022-09-09T05:46:27;20.70;99.90
23839;DHT22;12100;44.384;20.272;2022-09-09T05:48:53;20.60;99.90
23839;DHT22;12100;44.384;20.272;2022-09-09T05:51:25;20.60;99.90
23839;DHT22;12100;44.384;20.272;2022-09-09T05:53:52;20.70;99.90
23839;DHT22;12100;44.384;20.272;2022-09-09T05:56:23;20.80;99.90
23839;DHT22;12100;44.384;20.272;2022-09-09T05:58:50;20.70;99.90
23839;DHT22;12100;44.384;20.272;2022-09-09T06:01:19;20.80;99.90
23839;DHT22;12100;44.384;20.272;2022-09-09T06:03:47;20.80;99.90
23839;DHT22;12100;44.384;20.272;2022-09-09T06:06:15;20.80;99.90
23839;DHT22;12100;44.384;20.272;2022-09-09T06:08:44;20.80;99.90
23839;DHT22;12100;44.384;20.272;2022-09-09T06:11:15;20.80;99.90
23839;DHT22;12100;44.384;20.272;2022-09-09T06:13:42;20.90;99.90
23839;DHT22;12100;44.384;20.272;2022-09-09T06:16:12;21.00;99.90
23839;DHT22;12100;44.384;20.272;2022-09-09T06:18:39;21.10;99.90
23839;DHT22;12100;44.384;20.272;2022-09-09T06:21:08;21.10;99.90
23839;DHT22;12100;44.384;20.272;2022-09-09T06:23:34;21.20;99.90
23839;DHT22;12100;44.384;20.272;2022-09-09T06:26:05;21.20;99.90
23839;DHT22;12100;44.384;20.272;2022-09-09T06:28:33;21.30;99.90
23839;DHT22;12100;44.384;20.272;2022-09-09T06:31:04;21.30;99.90
23839;DHT22;12100;44.384;20.272;2022-09-09T06:33:34;21.30;99.90
23839;DHT22;12100;44.384;20.272;2022-09-09T06:36:02;21.40;99.90
23839;DHT22;12100;44.384;20.272;2022-09-09T06:38:29;21.30;99.90
23839;DHT22;12100;44.384;20.272;2022-09-09T06:40:57;21.20;99.90
23839;DHT22;12100;44.384;20.272;2022-09-09T06:43:23;21.30;99.90
23839;DHT22;12100;44.384;20.272;2022-09-09T06:45:54;21.30;99.90
23839;DHT22;12100;44.384;20.272;2022-09-09T06:48:20;21.30;99.90
23839;DHT22;12100;44.384;20.272;2022-09-09T06:50:45;21.30;99.90
23839;DHT22;12100;44.384;20.272;2022-09-09T06:53:12;21.20;99.90
23839;DHT22;12100;44.384;20.272;2022-09-09T06:55:37;21.20;99.90
23839;DHT22;12100;44.384;20.272;2022-09-09T06:58:09;21.20;99.90
23839;DHT22;12100;44.384;20.272;2022-09-09T07:00:34;21.20;99.90
23839;DHT22;12100;44.384;20.272;2022-09-09T07:03:03;21.30;99.90
23839;DHT22;12100;44.384;20.272;2022-09-09T07:05:29;21.30;99.90
23839;DHT22;12100;44.384;20.272;2022-09-09T07:07:54;21.40;99.90
23839;DHT22;12100;44.384;20.272;2022-09-09T07:10:21;21.50;99.90
23839;DHT22;12100;44.384;20.272;2022-09-09T07:12:51;21.50;99.90
23839;DHT22;12100;44.384;20.272;2022-09-09T07:15:17;21.60;99.90
23839;DHT22;12100;44.384;20.272;2022-09-09T07:17:44;21.70;99.90
23839;DHT22;12100;44.384;20.272;2022-09-09T07:20:11;21.80;99.90
23839;DHT22;12100;44.384;20.272;2022-09-09T07:22:37;22.00;99.90
23839;DHT22;12100;44.384;20.272;2022-09-09T07:25:03;22.10;99.90
23839;DHT22;12100;44.384;20.272;2022-09-09T07:27:29;22.20;99.90
23839;DHT22;12100;44.384;20.272;2022-09-09T07:29:55;22.30;99.90
23839;DHT22;12100;44.384;20.272;2022-09-09T07:34:51;22.60;99.90
23839;DHT22;12100;44.384;20.272;2022-09-09T07:37:17;22.70;99.90
23839;DHT22;12100;44.384;20.272;2022-09-09T07:39:43;22.80;99.90
23839;DHT22;12100;44.384;20.272;2022-09-09T07:42:09;22.90;99.90
23839;DHT22;12100;44.384;20.272;2022-09-09T07:44:37;23.00;99.90
23839;DHT22;12100;44.384;20.272;2022-09-09T07:47:05;23.10;99.90
23839;DHT22;12100;44.384;20.272;2022-09-09T07:49:31;23.10;99.90
23839;DHT22;12100;44.384;20.272;2022-09-09T07:51:58;23.30;99.90
23839;DHT22;12100;44.384;20.272;2022-09-09T07:54:24;23.20;99.90
23839;DHT22;12100;44.384;20.272;2022-09-09T07:56:52;23.30;99.90
23839;DHT22;12100;44.384;20.272;2022-09-09T07:59:18;23.40;99.90
23839;DHT22;12100;44.384;20.272;2022-09-09T08:01:47;23.30;99.90
23839;DHT22;12100;44.384;20.272;2022-09-09T08:04:17;23.40;99.90
23839;DHT22;12100;44.384;20.272;2022-09-09T08:06:52;23.40;99.50
23839;DHT22;12100;44.384;20.272;2022-09-09T08:09:19;23.40;99.90
23839;DHT22;12100;44.384;20.272;2022-09-09T08:11:45;23.30;99.30
23839;DHT22;12100;44.384;20.272;2022-09-09T08:14:11;23.30;99.00
23839;DHT22;12100;44.384;20.272;2022-09-09T08:16:40;23.40;99.90
23839;DHT22;12100;44.384;20.272;2022-09-09T08:19:07;23.30;99.90
23839;DHT22;12100;44.384;20.272;2022-09-09T08:21:35;23.40;99.90
23839;DHT22;12100;44.384;20.272;2022-09-09T08:24:02;23.50;99.70
23839;DHT22;12100;44.384;20.272;2022-09-09T08:26:31;23.50;99.10
23839;DHT22;12100;44.384;20.272;2022-09-09T08:28:58;23.60;99.40
23839;DHT22;12100;44.384;20.272;2022-09-09T08:31:33;23.70;97.90
23839;DHT22;12100;44.384;20.272;2022-09-09T08:34:00;23.50;97.00
23839;DHT22;12100;44.384;20.272;2022-09-09T08:36:30;23.80;97.30
23839;DHT22;12100;44.384;20.272;2022-09-09T08:38:57;23.90;96.90
23839;DHT22;12100;44.384;20.272;2022-09-09T08:41:45;24.30;95.60
23839;DHT22;12100;44.384;20.272;2022-09-09T08:44:31;24.50;94.50
23839;DHT22;12100;44.384;20.272;2022-09-09T08:50:56;24.80;93.00
23839;DHT22;12100;44.384;20.272;2022-09-09T08:53:10;25.10;92.10
23839;DHT22;12100;44.384;20.272;2022-09-09T09:11:48;26.00;84.60
23839;DHT22;12100;44.384;20.272;2022-09-09T09:14:21;26.60;81.10
23839;DHT22;12100;44.384;20.272;2022-09-09T09:19:18;26.60;78.60
23839;DHT22;12100;44.384;20.272;2022-09-09T09:21:59;27.00;78.80
23839;DHT22;12100;44.384;20.272;2022-09-09T09:24:53;27.20;75.80
23839;DHT22;12100;44.384;20.272;2022-09-09T09:27:33;27.10;75.10
23839;DHT22;12100;44.384;20.272;2022-09-09T09:30:23;27.50;75.30
23839;DHT22;12100;44.384;20.272;2022-09-09T09:35:16;27.90;70.50
23839;DHT22;12100;44.384;20.272;2022-09-09T09:37:42;27.60;69.90
23839;DHT22;12100;44.384;20.272;2022-09-09T09:40:20;27.70;69.60
23839;DHT22;12100;44.384;20.272;2022-09-09T09:42:49;27.50;69.60
23839;DHT22;12100;44.384;20.272;2022-09-09T09:45:42;27.70;70.60
23839;DHT22;12100;44.384;20.272;2022-09-09T09:48:13;27.60;70.60
23839;DHT22;12100;44.384;20.272;2022-09-09T09:50:55;27.80;69.90
23839;DHT22;12100;44.384;20.272;2022-09-09T09:53:25;27.80;68.50
23839;DHT22;12100;44.384;20.272;2022-09-09T09:56:10;28.20;68.50
23839;DHT22;12100;44.384;20.272;2022-09-09T09:58:57;28.60;70.30
23839;DHT22;12100;44.384;20.272;2022-09-09T10:01:27;28.20;68.20
23839;DHT22;12100;44.384;20.272;2022-09-09T10:06:44;27.80;65.10
23839;DHT22;12100;44.384;20.272;2022-09-09T10:09:26;27.60;65.40
23839;DHT22;12100;44.384;20.272;2022-09-09T10:12:35;28.10;67.80
23839;DHT22;12100;44.384;20.272;2022-09-09T10:25:37;29.20;61.10
23839;DHT22;12100;44.384;20.272;2022-09-09T10:30:47;29.50;63.00
23839;DHT22;12100;44.384;20.272;2022-09-09T10:36:13;29.80;62.00
23839;DHT22;12100;44.384;20.272;2022-09-09T10:38:42;29.80;60.80
23839;DHT22;12100;44.384;20.272;2022-09-09T11:00:10;28.90;63.90
23839;DHT22;12100;44.384;20.272;2022-09-09T11:02:41;29.10;64.00
23839;DHT22;12100;44.384;20.272;2022-09-09T11:08:09;29.00;62.30
23839;DHT22;12100;44.384;20.272;2022-09-09T11:14:05;29.80;62.40
23839;DHT22;12100;44.384;20.272;2022-09-09T11:19:19;29.20;59.90
23839;DHT22;12100;44.384;20.272;2022-09-09T11:21:49;29.10;62.00
23839;DHT22;12100;44.384;20.272;2022-09-09T11:24:30;29.40;61.00
23839;DHT22;12100;44.384;20.272;2022-09-09T11:27:25;29.00;60.50
23839;DHT22;12100;44.384;20.272;2022-09-09T11:35:40;28.80;60.30
23839;DHT22;12100;44.384;20.272;2022-09-09T11:40:41;28.60;62.20
23839;DHT22;12100;44.384;20.272;2022-09-09T11:46:12;28.20;64.40
23839;DHT22;12100;44.384;20.272;2022-09-09T11:48:40;28.20;65.20
23839;DHT22;12100;44.384;20.272;2022-09-09T11:53:59;28.30;63.50
23839;DHT22;12100;44.384;20.272;2022-09-09T11:56:45;28.20;65.20
23839;DHT22;12100;44.384;20.272;2022-09-09T12:05:28;28.00;64.40
23839;DHT22;12100;44.384;20.272;2022-09-09T12:07:52;27.70;64.80
23839;DHT22;12100;44.384;20.272;2022-09-09T12:10:29;27.80;65.40
23839;DHT22;12100;44.384;20.272;2022-09-09T12:12:55;27.60;64.70
23839;DHT22;12100;44.384;20.272;2022-09-09T12:15:33;27.70;65.80
23839;DHT22;12100;44.384;20.272;2022-09-09T12:17:59;27.60;67.00
23839;DHT22;12100;44.384;20.272;2022-09-09T12:20:34;27.80;66.50
23839;DHT22;12100;44.384;20.272;2022-09-09T12:26:16;27.30;67.20
23839;DHT22;12100;44.384;20.272;2022-09-09T12:34:27;27.30;66.20
23839;DHT22;12100;44.384;20.272;2022-09-09T12:37:03;27.40;66.00
23839;DHT22;12100;44.384;20.272;2022-09-09T12:39:36;27.30;66.50
23839;DHT22;12100;44.384;20.272;2022-09-09T12:42:03;27.40;66.90
23839;DHT22;12100;44.384;20.272;2022-09-09T12:44:30;27.50;66.60
23839;DHT22;12100;44.384;20.272;2022-09-09T12:47:01;27.60;65.80
23839;DHT22;12100;44.384;20.272;2022-09-09T12:51:54;28.10;66.00
23839;DHT22;12100;44.384;20.272;2022-09-09T12:54:23;27.90;65.20
23839;DHT22;12100;44.384;20.272;2022-09-09T12:56:49;28.20;64.90
23839;DHT22;12100;44.384;20.272;2022-09-09T12:59:39;28.20;66.80
23839;DHT22;12100;44.384;20.272;2022-09-09T13:02:21;28.30;67.10
23839;DHT22;12100;44.384;20.272;2022-09-09T13:04:47;28.30;65.70
23839;DHT22;12100;44.384;20.272;2022-09-09T13:07:13;28.30;64.90
23839;DHT22;12100;44.384;20.272;2022-09-09T13:09:42;28.10;65.70
23839;DHT22;12100;44.384;20.272;2022-09-09T13:12:18;28.00;65.70
23839;DHT22;12100;44.384;20.272;2022-09-09T13:14:47;28.10;66.20
23839;DHT22;12100;44.384;20.272;2022-09-09T13:17:27;28.00;65.80
23839;DHT22;12100;44.384;20.272;2022-09-09T13:19:56;27.90;67.00
23839;DHT22;12100;44.384;20.272;2022-09-09T13:22:35;28.00;67.30
23839;DHT22;12100;44.384;20.272;2022-09-09T13:25:25;27.90;68.60
23839;DHT22;12100;44.384;20.272;2022-09-09T13:30:39;28.00;68.80
23839;DHT22;12100;44.384;20.272;2022-09-09T13:35:54;27.70;68.60
23839;DHT22;12100;44.384;20.272;2022-09-09T13:38:20;27.70;67.10
23839;DHT22;12100;44.384;20.272;2022-09-09T13:43:25;27.90;69.00
23839;DHT22;12100;44.384;20.272;2022-09-09T13:46:00;28.30;69.80
23839;DHT22;12100;44.384;20.272;2022-09-09T13:48:27;28.20;68.80
23839;DHT22;12100;44.384;20.272;2022-09-09T13:51:01;27.80;68.10
23839;DHT22;12100;44.384;20.272;2022-09-09T13:53:30;27.60;68.70
23839;DHT22;12100;44.384;20.272;2022-09-09T13:55:56;27.60;70.20
23839;DHT22;12100;44.384;20.272;2022-09-09T13:58:22;27.40;71.40
23839;DHT22;12100;44.384;20.272;2022-09-09T14:00:51;27.40;72.30
23839;DHT22;12100;44.384;20.272;2022-09-09T14:03:17;27.20;72.40
23839;DHT22;12100;44.384;20.272;2022-09-09T14:05:44;27.00;73.40
23839;DHT22;12100;44.384;20.272;2022-09-09T14:08:16;27.00;74.00
23839;DHT22;12100;44.384;20.272;2022-09-09T14:10:46;27.00;76.20
23839;DHT22;12100;44.384;20.272;2022-09-09T14:13:12;27.20;74.90
23839;DHT22;12100;44.384;20.272;2022-09-09T14:15:38;27.30;73.30
23839;DHT22;12100;44.384;20.272;2022-09-09T14:18:04;27.30;73.00
23839;DHT22;12100;44.384;20.272;2022-09-09T14:20:30;27.10;73.10
23839;DHT22;12100;44.384;20.272;2022-09-09T14:22:55;27.20;73.80
23839;DHT22;12100;44.384;20.272;2022-09-09T14:25:23;27.10;72.80
23839;DHT22;12100;44.384;20.272;2022-09-09T14:27:48;27.00;73.90
23839;DHT22;12100;44.384;20.272;2022-09-09T14:30:16;27.10;74.60
23839;DHT22;12100;44.384;20.272;2022-09-09T14:32:42;27.00;74.40
23839;DHT22;12100;44.384;20.272;2022-09-09T14:35:08;27.00;73.10
23839;DHT22;12100;44.384;20.272;2022-09-09T14:37:34;27.20;73.30
23839;DHT22;12100;44.384;20.272;2022-09-09T14:40:00;27.00;72.70
23839;DHT22;12100;44.384;20.272;2022-09-09T14:42:26;27.00;73.40
23839;DHT22;12100;44.384;20.272;2022-09-09T14:44:52;26.80;73.30
23839;DHT22;12100;44.384;20.272;2022-09-09T14:47:18;26.90;74.80
23839;DHT22;12100;44.384;20.272;2022-09-09T14:49:43;27.00;73.40
23839;DHT22;12100;44.384;20.272;2022-09-09T14:52:11;27.00;73.90
23839;DHT22;12100;44.384;20.272;2022-09-09T14:54:36;26.90;73.00
23839;DHT22;12100;44.384;20.272;2022-09-09T14:57:02;26.90;72.90
23839;DHT22;12100;44.384;20.272;2022-09-09T14:59:28;26.90;73.00
23839;DHT22;12100;44.384;20.272;2022-09-09T15:01:54;27.00;73.20
23839;DHT22;12100;44.384;20.272;2022-09-09T15:04:20;26.90;72.40
23839;DHT22;12100;44.384;20.272;2022-09-09T15:06:46;26.80;72.90
23839;DHT22;12100;44.384;20.272;2022-09-09T15:09:14;26.80;73.00
23839;DHT22;12100;44.384;20.272;2022-09-09T15:11:40;26.80;73.40
23839;DHT22;12100;44.384;20.272;2022-09-09T15:14:08;26.70;72.20
23839;DHT22;12100;44.384;20.272;2022-09-09T15:16:34;26.70;72.30
23839;DHT22;12100;44.384;20.272;2022-09-09T15:19:01;26.70;73.40
23839;DHT22;12100;44.384;20.272;2022-09-09T15:21:30;26.50;73.80
23839;DHT22;12100;44.384;20.272;2022-09-09T15:23:57;26.40;74.30
23839;DHT22;12100;44.384;20.272;2022-09-09T15:26:23;26.50;75.30
23839;DHT22;12100;44.384;20.272;2022-09-09T15:28:50;26.40;75.20
23839;DHT22;12100;44.384;20.272;2022-09-09T15:31:27;26.40;76.10
23839;DHT22;12100;44.384;20.272;2022-09-09T15:34:11;26.40;76.00
23839;DHT22;12100;44.384;20.272;2022-09-09T15:36:44;26.40;76.40
23839;DHT22;12100;44.384;20.272;2022-09-09T15:39:13;26.40;76.50
23839;DHT22;12100;44.384;20.272;2022-09-09T15:41:42;26.40;76.80
23839;DHT22;12100;44.384;20.272;2022-09-09T15:44:09;26.20;77.40
23839;DHT22;12100;44.384;20.272;2022-09-09T15:46:46;26.20;77.50
23839;DHT22;12100;44.384;20.272;2022-09-09T15:49:22;26.10;78.60
23839;DHT22;12100;44.384;20.272;2022-09-09T15:51:55;25.90;78.70
23839;DHT22;12100;44.384;20.272;2022-09-09T15:54:23;25.80;78.80
23839;DHT22;12100;44.384;20.272;2022-09-09T15:56:55;25.60;79.40
23839;DHT22;12100;44.384;20.272;2022-09-09T15:59:22;25.50;80.50
23839;DHT22;12100;44.384;20.272;2022-09-09T16:01:48;25.40;80.80
23839;DHT22;12100;44.384;20.272;2022-09-09T16:04:20;25.30;81.50
23839;DHT22;12100;44.384;20.272;2022-09-09T16:09:24;25.20;82.60
23839;DHT22;12100;44.384;20.272;2022-09-09T16:11:51;25.10;83.20
23839;DHT22;12100;44.384;20.272;2022-09-09T16:14:18;25.00;84.10
23839;DHT22;12100;44.384;20.272;2022-09-09T16:16:44;25.00;83.90
23839;DHT22;12100;44.384;20.272;2022-09-09T16:19:11;25.00;84.90
23839;DHT22;12100;44.384;20.272;2022-09-09T16:21:40;24.90;85.40
23839;DHT22;12100;44.384;20.272;2022-09-09T16:24:09;24.80;86.10
23839;DHT22;12100;44.384;20.272;2022-09-09T16:26:37;24.80;86.30
23839;DHT22;12100;44.384;20.272;2022-09-09T16:29:04;24.80;87.00
23839;DHT22;12100;44.384;20.272;2022-09-09T16:31:31;24.80;87.70
23839;DHT22;12100;44.384;20.272;2022-09-09T16:34:00;24.70;87.80
23839;DHT22;12100;44.384;20.272;2022-09-09T16:36:31;24.60;88.30
23839;DHT22;12100;44.384;20.272;2022-09-09T16:38:59;24.60;89.20
23839;DHT22;12100;44.384;20.272;2022-09-09T16:41:26;24.50;89.00
23839;DHT22;12100;44.384;20.272;2022-09-09T16:43:56;24.40;90.20
23839;DHT22;12100;44.384;20.272;2022-09-09T16:46:23;24.40;91.50
23839;DHT22;12100;44.384;20.272;2022-09-09T16:48:50;24.30;91.30
23839;DHT22;12100;44.384;20.272;2022-09-09T16:53:45;24.20;91.90
23839;DHT22;12100;44.384;20.272;2022-09-09T16:56:16;24.20;91.30
23839;DHT22;12100;44.384;20.272;2022-09-09T16:58:42;24.20;92.30
23839;DHT22;12100;44.384;20.272;2022-09-09T17:01:09;24.10;93.10
23839;DHT22;12100;44.384;20.272;2022-09-09T17:03:37;24.10;93.20
23839;DHT22;12100;44.384;20.272;2022-09-09T17:06:03;24.10;93.60
23839;DHT22;12100;44.384;20.272;2022-09-09T17:08:33;24.10;93.60
23839;DHT22;12100;44.384;20.272;2022-09-09T17:10:59;24.00;93.40
23839;DHT22;12100;44.384;20.272;2022-09-09T17:13:25;24.00;93.90
23839;DHT22;12100;44.384;20.272;2022-09-09T17:15:51;23.90;93.80
23839;DHT22;12100;44.384;20.272;2022-09-09T17:18:17;23.90;95.10
23839;DHT22;12100;44.384;20.272;2022-09-09T17:20:43;23.80;95.20
23839;DHT22;12100;44.384;20.272;2022-09-09T17:23:10;23.80;96.40
23839;DHT22;12100;44.384;20.272;2022-09-09T17:25:37;23.80;96.30
23839;DHT22;12100;44.384;20.272;2022-09-09T17:28:03;23.70;96.10
23839;DHT22;12100;44.384;20.272;2022-09-09T17:30:36;23.70;95.90
23839;DHT22;12100;44.384;20.272;2022-09-09T17:33:03;23.60;96.70
23839;DHT22;12100;44.384;20.272;2022-09-09T17:35:31;23.60;96.90
23839;DHT22;12100;44.384;20.272;2022-09-09T17:37:57;23.50;96.80
23839;DHT22;12100;44.384;20.272;2022-09-09T17:40:23;23.50;97.10
23839;DHT22;12100;44.384;20.272;2022-09-09T17:42:48;23.50;97.70
23839;DHT22;12100;44.384;20.272;2022-09-09T17:45:15;23.50;98.20
23839;DHT22;12100;44.384;20.272;2022-09-09T17:47:41;23.40;98.70
23839;DHT22;12100;44.384;20.272;2022-09-09T17:50:09;23.30;99.90
23839;DHT22;12100;44.384;20.272;2022-09-09T17:52:37;23.30;99.90
23839;DHT22;12100;44.384;20.272;2022-09-09T17:55:04;23.30;99.90
23839;DHT22;12100;44.384;20.272;2022-09-09T17:57:30;23.20;99.90
23839;DHT22;12100;44.384;20.272;2022-09-09T17:59:55;23.20;99.90
23839;DHT22;12100;44.384;20.272;2022-09-09T18:02:21;23.20;99.90
23839;DHT22;12100;44.384;20.272;2022-09-09T18:04:47;23.20;99.90
23839;DHT22;12100;44.384;20.272;2022-09-09T18:07:13;23.10;99.90
23839;DHT22;12100;44.384;20.272;2022-09-09T18:09:39;23.00;99.90
23839;DHT22;12100;44.384;20.272;2022-09-09T18:12:05;23.00;99.90
23839;DHT22;12100;44.384;20.272;2022-09-09T18:14:32;23.00;99.90
23839;DHT22;12100;44.384;20.272;2022-09-09T18:16:59;22.90;99.90
23839;DHT22;12100;44.384;20.272;2022-09-09T18:19:27;22.90;99.90
23839;DHT22;12100;44.384;20.272;2022-09-09T18:21:56;22.90;99.90
23839;DHT22;12100;44.384;20.272;2022-09-09T18:24:22;22.90;99.90
23839;DHT22;12100;44.384;20.272;2022-09-09T18:26:49;22.80;99.90